Time;durP1;ratioP1;P1;durP2;ratioP2;P2;SDS_P1;SDS_P2;PMS_P1;PMS_P2;Temp;Humidity;BMP_temperature;BMP_pressure;BME280_temperature;BME280_humidity;BME280_pressure;Samples;Min_cycle;Max_cycle;Signal;HPM_P1;HPM_P2
2022/02/07 00:01:44;;;;;;;33.48;18.82;;;;;;;0.38;70.64;96766.45;1708055;84;21039;-75
2022/02/07 00:04:08;;;;;;;43.28;19.35;;;;;;;0.41;70.95;96769.92;1708296;84;21434;-75
2022/02/07 00:06:35;;;;;;;32.13;18.48;;;;;;;0.42;70.55;96761.22;1708261;84;21405;-75
2022/02/07 00:09:03;;;;;;;35.38;18.98;;;;;;;0.41;70.66;96765.55;1708206;84;20988;-74
2022/02/07 00:11:29;;;;;;;38.45;20.23;;;;;;;0.42;70.61;96756.88;1708252;84;20992;-75
2022/02/07 00:13:56;;;;;;;34.63;19.32;;;;;;;0.43;70.61;96747.30;1708339;84;21043;-75
2022/02/07 00:16:23;;;;;;;37.25;19.60;;;;;;;0.40;70.72;96745.59;1708176;84;20996;-75
2022/02/07 00:18:51;;;;;;;38.00;18.70;;;;;;;0.39;70.60;96735.62;1708305;84;21012;-75
2022/02/07 00:21:17;;;;;;;37.25;18.32;;;;;;;0.42;70.48;96727.33;1708369;84;21039;-75
2022/02/07 00:23:46;;;;;;;32.65;17.75;;;;;;;0.37;70.31;96729.53;1708229;84;20972;-75
2022/02/07 00:26:12;;;;;;;34.48;18.25;;;;;;;0.35;70.35;96725.22;1708314;84;21036;-75
2022/02/07 00:28:39;;;;;;;40.20;19.27;;;;;;;0.34;70.37;96722.20;1708351;84;21039;-75
2022/02/07 00:31:05;;;;;;;38.60;17.87;;;;;;;0.30;70.33;96712.25;1707941;84;21047;-75
2022/02/07 00:33:32;;;;;;;36.70;19.57;;;;;;;0.21;70.31;96717.54;1708132;84;20964;-75
2022/02/07 00:36:01;;;;;;;37.95;18.23;;;;;;;0.20;70.41;96708.00;1715856;82;21050;-75
2022/02/07 00:38:28;;;;;;;31.65;16.37;;;;;;;0.18;70.66;96717.13;1736444;82;21038;-75
2022/02/07 00:41:12;;;;;;;29.85;16.73;;;;;;;0.16;70.42;96703.23;1736367;83;21061;-74
2022/02/07 00:43:36;;;;;;;29.77;15.72;;;;;;;0.18;70.34;96701.92;1734736;82;21015;-75
2022/02/07 00:46:06;;;;;;;34.95;16.00;;;;;;;0.18;70.50;96695.41;1735506;81;21050;-75
2022/02/07 00:48:27;;;;;;;30.25;15.60;;;;;;;0.15;70.90;96687.18;1735639;82;21070;-74
2022/02/07 00:50:56;;;;;;;29.98;16.32;;;;;;;0.17;70.98;96673.69;1719411;83;20990;-74
2022/02/07 00:53:25;;;;;;;32.85;16.27;;;;;;;0.14;71.18;96669.83;1736673;81;21113;-75
2022/02/07 00:55:54;;;;;;;30.12;15.88;;;;;;;0.13;70.99;96658.53;1736485;82;21019;-74
2022/02/07 00:58:21;;;;;;;32.03;16.25;;;;;;;0.11;70.88;96658.12;1736215;83;20987;-74
2022/02/07 01:00:52;;;;;;;28.95;14.93;;;;;;;0.05;70.86;96646.04;1736435;83;20984;-74
2022/02/07 01:03:22;;;;;;;23.85;14.63;;;;;;;0.04;71.07;96639.53;1736419;83;21404;-75
2022/02/07 01:05:51;;;;;;;27.27;14.43;;;;;;;0.04;70.98;96626.52;1736264;83;21030;-75
2022/02/07 01:08:27;;;;;;;25.52;14.15;;;;;;;0.04;70.91;96623.45;1736327;82;20994;-75
2022/02/07 01:11:09;;;;;;;34.10;16.75;;;;;;;0.02;71.06;96629.12;1735875;82;21035;-75
2022/02/07 01:13:48;;;;;;;31.65;16.97;;;;;;;-0.02;71.05;96619.61;1735713;82;21504;-75
2022/02/07 01:22:07;;;;;;;30.40;15.32;;;;;;;-0.01;71.51;96594.86;1736394;83;20119;-74
2022/02/07 01:54:33;;;;;;;10.98;6.15;;;;;;;1.04;69.56;96481.42;1739295;82;20987;-74
2022/02/07 01:56:53;;;;;;;8.88;4.90;;;;;;;1.36;67.71;96481.77;1736831;82;21066;-74
2022/02/07 01:59:21;;;;;;;8.65;5.15;;;;;;;1.80;66.88;96481.84;1739564;82;21018;-74
2022/02/07 02:01:47;;;;;;;10.82;5.40;;;;;;;2.04;66.14;96483.56;1739487;82;21440;-74
2022/02/07 02:04:14;;;;;;;8.28;4.37;;;;;;;2.20;66.66;96470.58;1739765;82;20979;-74
2022/02/07 02:06:44;;;;;;;12.68;5.55;;;;;;;2.28;66.65;96465.66;1739620;82;21027;-74
2022/02/07 02:09:16;;;;;;;7.72;4.75;;;;;;;2.42;64.15;96455.77;1738971;82;21059;-74
2022/02/07 02:11:43;;;;;;;9.80;4.95;;;;;;;2.57;65.59;96432.78;1739558;82;21002;-74
2022/02/07 02:14:41;;;;;;;10.30;5.20;;;;;;;2.60;65.93;96441.84;1739613;82;21054;-74
2022/02/07 02:22:41;;;;;;;8.70;4.70;;;;;;;2.48;66.20;96441.67;1739389;82;21018;-74
2022/02/07 02:46:58;;;;;;;19.12;10.82;;;;;;;1.69;68.15;96427.19;1739684;82;20979;-74
2022/02/07 02:49:32;;;;;;;16.45;9.43;;;;;;;1.66;68.25;96437.25;1739541;82;21006;-73
2022/02/07 02:51:53;;;;;;;17.02;9.70;;;;;;;1.61;68.80;96427.34;1738596;82;21002;-74
2022/02/07 02:54:20;;;;;;;15.85;8.15;;;;;;;1.58;68.61;96437.39;1739524;82;21131;-74
2022/02/07 02:56:46;;;;;;;16.02;8.95;;;;;;;1.56;68.79;96414.38;1739491;82;21018;-74
2022/02/07 02:59:12;;;;;;;16.25;8.45;;;;;;;1.59;69.27;96418.69;1739478;82;21014;-74
2022/02/07 03:01:39;;;;;;;14.63;8.48;;;;;;;1.60;69.21;96432.15;1739460;82;21046;-74
2022/02/07 03:04:08;;;;;;;14.50;8.33;;;;;;;1.60;69.12;96432.58;1739195;82;21423;-74
2022/02/07 03:06:37;;;;;;;15.08;8.00;;;;;;;1.61;69.12;96426.03;1739501;82;21018;-74
2022/02/07 03:09:05;;;;;;;13.88;7.97;;;;;;;1.62;69.12;96417.30;1739684;82;21452;-74
2022/02/07 03:11:32;;;;;;;13.50;7.70;;;;;;;1.63;69.41;96428.19;1739551;82;21002;-74
2022/02/07 03:14:03;;;;;;;15.48;8.30;;;;;;;1.65;69.23;96425.09;1739594;82;20979;-74
2022/02/07 03:16:38;;;;;;;13.80;8.10;;;;;;;1.69;69.10;96405.86;1738019;82;21451;-74
2022/02/07 03:19:14;;;;;;;15.32;8.90;;;;;;;1.72;69.11;96415.38;1739481;82;21070;-74
2022/02/07 03:21:43;;;;;;;14.75;8.25;;;;;;;1.75;69.08;96418.37;1739678;82;21439;-74
2022/02/07 03:24:11;;;;;;;18.05;8.78;;;;;;;1.77;69.00;96409.63;1739559;82;21015;-74
2022/02/07 03:26:45;;;;;;;11.10;7.25;;;;;;;1.78;69.05;96402.66;1733181;82;21416;-74
2022/02/07 03:29:15;;;;;;;14.45;7.17;;;;;;;1.77;69.22;96403.52;1739246;82;21002;-74
2022/02/07 03:31:44;;;;;;;15.95;8.35;;;;;;;1.76;69.27;96403.11;1739239;81;21054;-74
2022/02/07 03:34:13;;;;;;;12.30;7.83;;;;;;;1.75;69.58;96400.97;1739580;82;21423;-74
2022/02/07 03:36:42;;;;;;;11.80;6.70;;;;;;;1.75;69.53;96393.56;1738594;82;21022;-74
2022/02/07 03:39:10;;;;;;;13.20;6.42;;;;;;;1.74;69.54;96399.69;1736111;83;21436;-74
2022/02/07 03:41:37;;;;;;;13.22;6.97;;;;;;;1.79;69.28;96401.30;1736249;83;21491;-73
2022/02/07 03:44:05;;;;;;;11.20;6.47;;;;;;;1.84;69.26;96397.30;1719740;83;20974;-74
2022/02/07 03:46:32;;;;;;;9.95;6.62;;;;;;;1.86;69.28;96392.89;1736115;83;21031;-74
2022/02/07 03:48:59;;;;;;;11.75;6.95;;;;;;;1.86;69.33;96373.77;1719449;83;21448;-74
2022/02/07 03:51:25;;;;;;;10.70;6.12;;;;;;;1.88;69.38;96372.84;1736201;83;21724;-74
2022/02/07 03:53:52;;;;;;;10.88;7.00;;;;;;;1.87;69.49;96367.64;1736252;83;20982;-75
2022/02/07 03:56:19;;;;;;;10.78;6.60;;;;;;;1.84;69.59;96373.78;1736317;82;20979;-74
2022/02/07 03:58:46;;;;;;;12.40;6.15;;;;;;;1.86;69.53;96373.77;1736445;83;21053;-74
2022/02/07 04:01:14;;;;;;;11.25;6.92;;;;;;;1.83;69.66;96363.77;1736200;83;21016;-74
2022/02/07 04:03:49;;;;;;;12.53;7.37;;;;;;;1.84;69.80;96367.25;1736383;83;20971;-74
2022/02/07 04:06:19;;;;;;;14.47;7.87;;;;;;;1.80;69.72;96364.29;1736019;83;21121;-74
2022/02/07 04:08:50;;;;;;;11.00;7.47;;;;;;;1.77;69.92;96369.56;1735256;82;21455;-74
2022/02/07 04:13:54;;;;;;;20.90;11.95;;;;;;;1.78;69.95;96377.84;1736387;82;21000;-74
2022/02/07 04:16:21;;;;;;;20.92;11.25;;;;;;;1.79;69.88;96368.64;1736124;83;21019;-75
2022/02/07 04:19:01;;;;;;;25.57;12.35;;;;;;;1.79;69.85;96358.19;1705203;82;21443;-74
2022/02/07 04:21:24;;;;;;;22.52;11.97;;;;;;;1.81;69.76;96355.55;1735631;82;21026;-75
2022/02/07 04:23:52;;;;;;;20.72;12.55;;;;;;;1.80;69.66;96343.39;1736640;83;21421;-75
2022/02/07 04:26:21;;;;;;;23.98;11.93;;;;;;;1.79;69.49;96354.74;1736305;82;21455;-75
2022/02/07 04:28:47;;;;;;;20.72;12.20;;;;;;;1.79;69.47;96363.88;1736536;82;20982;-75
2022/02/07 04:31:14;;;;;;;23.10;12.37;;;;;;;1.79;69.44;96375.64;1736354;82;21050;-75
2022/02/07 04:33:43;;;;;;;22.35;12.25;;;;;;;1.76;69.45;96361.33;1736675;83;21022;-75
2022/02/07 04:36:12;;;;;;;20.90;12.13;;;;;;;1.73;69.40;96360.94;1736306;83;21019;-75
2022/02/07 04:38:38;;;;;;;23.00;11.88;;;;;;;1.73;69.40;96360.94;1739321;82;21054;-75
2022/02/07 04:41:07;;;;;;;21.68;12.35;;;;;;;1.74;69.56;96347.45;1739526;82;21550;-75
2022/02/07 04:43:35;;;;;;;24.35;13.88;;;;;;;1.73;69.62;96349.19;1739438;82;21479;-75
2022/02/07 04:46:31;;;;;;;24.95;12.88;;;;;;;1.73;69.40;96354.88;1739526;82;21066;-75
2022/02/07 04:49:05;;;;;;;23.42;12.80;;;;;;;1.72;69.47;96326.58;1736371;82;21022;-75
2022/02/07 04:54:07;;;;;;;21.17;12.45;;;;;;;1.70;69.57;96317.47;1739678;82;20987;-75
2022/02/07 05:02:08;;;;;;;24.57;13.53;;;;;;;1.67;69.61;96333.19;1739666;82;21020;-75
2022/02/07 05:03:49;;;;;;;27.05;13.55;;;;;;;1.65;69.60;96330.20;1712819;82;21086;-75
2022/02/07 05:14:35;;;;;;;24.07;12.85;;;;;;;1.60;69.62;96336.84;1739578;82;21019;-75
2022/02/07 05:17:06;;;;;;;26.37;14.95;;;;;;;1.57;69.73;96332.54;1739439;82;21503;-75
2022/02/07 05:19:32;;;;;;;23.85;12.95;;;;;;;1.56;69.89;96335.17;1738309;82;21078;-75
2022/02/07 05:22:09;;;;;;;28.30;14.18;;;;;;;1.54;69.69;96326.06;1737029;82;20994;-75
2022/02/07 05:24:43;;;;;;;;;;;;;;;1.53;69.64;96314.38;1740109;81;21046;-75
2022/02/07 05:27:12;;;;;;;22.17;13.28;;;;;;;1.51;69.87;96325.27;1721934;82;20088;-75
2022/02/07 05:29:46;;;;;;;24.65;13.95;;;;;;;1.48;70.01;96313.58;1671956;84;21029;-75
2022/02/07 05:32:20;;;;;;;;;;;;;;;1.45;70.03;96304.93;1711177;84;21076;-75
2022/02/07 05:34:52;;;;;;;31.60;15.00;;;;;;;1.42;70.06;96302.38;1711376;84;20359;-75
2022/02/07 05:37:23;;;;;;;33.28;14.78;;;;;;;1.37;69.82;96300.77;1678250;83;21025;-75
2022/02/07 05:40:03;;;;;;;31.10;15.55;;;;;;;1.33;69.88;96298.67;1709769;84;21009;-75
2022/02/07 05:42:27;;;;;;;33.73;17.15;;;;;;;1.28;70.07;96303.09;1712308;84;21036;-74
2022/02/07 05:44:59;;;;;;;30.08;16.25;;;;;;;1.27;70.01;96313.13;1710681;84;21031;-74
2022/02/07 05:47:35;;;;;;;30.55;15.43;;;;;;;1.25;70.09;96309.70;1711929;84;21042;-74
2022/02/07 05:50:12;;;;;;;27.62;15.25;;;;;;;1.24;70.29;96302.77;1710666;84;21478;-74
2022/02/07 05:52:59;;;;;;;31.73;15.50;;;;;;;1.23;70.32;96300.59;1700182;84;20963;-74
2022/02/07 05:55:27;;;;;;;27.58;14.90;;;;;;;1.19;70.26;96296.31;1712136;84;21047;-74
2022/02/07 05:58:04;;;;;;;30.82;15.30;;;;;;;1.19;70.14;96296.31;1712246;84;21454;-74
2022/02/07 06:00:49;;;;;;;30.72;15.15;;;;;;;1.16;70.46;96299.00;1714608;83;21017;-74
2022/02/07 06:03:16;;;;;;;24.35;13.35;;;;;;;1.16;70.30;96301.15;1713678;84;21016;-74
2022/02/07 06:05:45;;;;;;;26.55;13.95;;;;;;;1.16;70.18;96290.71;1686874;83;21045;-74
2022/02/07 06:08:18;;;;;;;33.95;15.43;;;;;;;1.17;70.10;96313.30;1685653;85;21005;-73
2022/02/07 06:10:46;;;;;;;38.30;17.02;;;;;;;1.16;70.10;96313.36;1686191;84;21396;-74
2022/02/07 06:13:17;;;;;;;33.53;17.10;;;;;;;1.14;70.19;96304.25;1686015;85;21003;-74
2022/02/07 06:15:46;;;;;;;37.03;19.23;;;;;;;1.10;70.58;96293.88;1686213;85;20982;-73
2022/02/07 06:18:16;;;;;;;35.23;18.82;;;;;;;1.10;70.42;96282.14;1662610;85;20975;-73
2022/02/07 06:20:42;;;;;;;40.25;18.62;;;;;;;1.06;70.83;96286.56;1685928;85;20975;-73
2022/02/07 06:23:08;;;;;;;95.17;46.92;;;;;;;1.01;71.01;96277.54;1686264;85;20951;-74
2022/02/07 06:25:35;;;;;;;36.13;19.42;;;;;;;1.05;70.90;96275.72;1686373;84;21022;-74
2022/02/07 06:28:03;;;;;;;38.67;17.67;;;;;;;1.04;70.98;96276.16;1686124;84;20978;-73
2022/02/07 06:30:31;;;;;;;33.30;16.75;;;;;;;1.03;71.01;96275.75;1688460;84;21009;-74
2022/02/07 06:32:59;;;;;;;41.02;19.27;;;;;;;1.07;71.14;96283.06;1686156;84;20982;-74
2022/02/07 06:35:25;;;;;;;40.85;17.87;;;;;;;1.09;70.95;96276.52;1686136;85;21014;-74
2022/02/07 06:37:54;;;;;;;34.27;17.35;;;;;;;1.09;71.14;96269.56;1690649;83;21446;-74
2022/02/07 06:40:22;;;;;;;36.23;16.77;;;;;;;1.16;71.08;96277.66;1662098;85;21052;-74
2022/02/07 06:42:48;;;;;;;34.00;17.80;;;;;;;1.21;70.97;96273.67;1661972;86;21420;-74
2022/02/07 06:45:15;;;;;;;39.05;18.75;;;;;;;1.25;71.16;96257.50;1661969;86;21014;-74
2022/02/07 06:47:42;;;;;;;29.77;16.65;;;;;;;1.28;71.11;96267.86;1702019;84;21049;-74
2022/02/07 06:50:10;;;;;;;35.10;17.52;;;;;;;1.29;70.84;96260.00;1701567;84;21435;-74
2022/02/07 06:52:37;;;;;;;29.52;16.75;;;;;;;1.33;70.97;96254.30;1702218;84;21021;-74
2022/02/07 06:55:07;;;;;;;33.00;16.60;;;;;;;1.35;70.80;96243.37;1702024;84;20985;-74
2022/02/07 06:57:36;;;;;;;39.73;18.15;;;;;;;1.36;70.78;96254.22;1666138;85;21028;-74
2022/02/07 07:00:10;;;;;;;54.38;17.62;;;;;;;1.34;70.80;96239.48;1701730;84;21001;-74
2022/02/07 07:02:39;;;;;;;54.20;17.90;;;;;;;1.35;70.87;96230.31;1662284;85;21038;-74
2022/02/07 07:05:12;;;;;;;37.33;15.63;;;;;;;1.38;70.82;96222.86;1662036;86;21132;-74
2022/02/07 07:07:37;;;;;;;31.05;15.38;;;;;;;1.38;70.91;96225.05;1661601;86;21065;-74
2022/02/07 07:10:07;;;;;;;33.00;16.23;;;;;;;1.37;71.17;96227.21;1673875;84;21005;-74
2022/02/07 07:12:34;;;;;;;36.00;18.30;;;;;;;1.39;70.87;96257.20;1669449;85;21054;-74
2022/02/07 07:15:15;;;;;;;47.93;23.83;;;;;;;1.40;71.45;96254.56;1673830;86;21070;-74
2022/02/07 07:17:40;;;;;;;52.17;23.18;;;;;;;1.42;71.09;96254.55;1681409;84;20951;-74
2022/02/07 07:20:10;;;;;;;49.88;23.20;;;;;;;1.50;71.09;96245.23;1685026;84;21068;-75
2022/02/07 07:22:37;;;;;;;43.15;22.35;;;;;;;1.57;71.15;96238.97;1687312;84;20995;-74
2022/02/07 07:25:08;;;;;;;39.03;19.98;;;;;;;1.65;71.52;96243.59;1687972;84;21398;-74
2022/02/07 07:27:44;;;;;;;37.17;20.60;;;;;;;1.70;70.98;96228.67;1686601;84;20987;-74
2022/02/07 07:30:04;;;;;;;38.13;19.60;;;;;;;1.81;70.83;96231.48;1699986;84;21013;-75
2022/02/07 07:32:32;;;;;;;33.23;19.12;;;;;;;1.93;70.87;96235.13;1691038;84;21089;-75
2022/02/07 07:35:01;;;;;;;32.88;18.20;;;;;;;2.02;70.60;96237.09;1673872;86;21406;-75
2022/02/07 07:37:28;;;;;;;28.83;15.98;;;;;;;2.11;70.40;96227.72;1673645;86;21435;-75
2022/02/07 07:39:56;;;;;;;34.35;16.10;;;;;;;2.21;70.08;96233.13;1674074;86;21044;-75
2022/02/07 07:42:24;;;;;;;25.20;15.18;;;;;;;2.31;69.92;96235.52;1673914;86;20993;-75
2022/02/07 07:45:02;;;;;;;24.27;13.68;;;;;;;2.42;70.03;96223.48;1672686;86;21498;-73
2022/02/07 07:47:34;;;;;;;24.70;13.78;;;;;;;2.58;69.98;96222.65;1674082;86;21013;-74
2022/02/07 07:50:15;;;;;;;21.65;12.82;;;;;;;2.70;69.58;96222.30;1673234;86;21024;-74
2022/02/07 08:01:16;;;;;;;25.82;12.95;;;;;;;2.90;68.27;96219.16;1694954;84;21025;-74
2022/02/07 08:03:26;;;;;;;23.20;12.43;;;;;;;3.15;68.35;96217.59;1650628;85;20999;-74
2022/02/07 08:09:43;;;;;;;21.65;12.90;;;;;;;3.30;68.40;96210.63;1673446;86;21398;-73
2022/02/07 08:11:10;;;;;;;19.80;11.73;;;;;;;3.37;68.08;96206.05;1684980;84;21107;-73
2022/02/07 08:13:40;;;;;;;18.48;11.43;;;;;;;3.42;68.21;96204.61;1693095;83;21545;-74
2022/02/07 08:16:07;;;;;;;21.45;12.82;;;;;;;3.47;67.58;96196.16;1690955;83;21051;-74
2022/02/07 08:18:33;;;;;;;25.27;13.35;;;;;;;3.50;67.46;96193.46;1693320;83;21467;-75
2022/02/07 08:21:00;;;;;;;25.52;13.58;;;;;;;3.49;67.22;96200.89;1683811;83;20988;-75
2022/02/07 08:23:27;;;;;;;23.02;13.75;;;;;;;3.52;67.48;96190.77;1682521;84;20993;-74
2022/02/07 08:25:55;;;;;;;27.37;14.05;;;;;;;3.52;67.10;96199.50;1696911;84;21016;-75
2022/02/07 08:28:22;;;;;;;26.93;13.85;;;;;;;3.54;66.92;96193.75;1713448;84;21108;-74
2022/02/07 08:30:48;;;;;;;24.80;13.58;;;;;;;3.53;66.80;96195.13;1713866;84;21017;-75
2022/02/07 08:33:15;;;;;;;21.40;12.85;;;;;;;3.52;66.74;96183.78;1713894;84;20989;-75
2022/02/07 08:35:42;;;;;;;26.68;14.20;;;;;;;3.51;66.83;96191.24;1713267;84;21036;-75
2022/02/07 08:38:09;;;;;;;26.77;16.27;;;;;;;3.43;66.25;96168.34;1690752;84;21020;-74
2022/02/07 08:40:37;;;;;;;31.73;16.57;;;;;;;3.39;66.57;96158.42;1694464;85;20990;-75
2022/02/07 08:43:05;;;;;;;33.73;16.27;;;;;;;3.38;66.75;96161.95;1694711;85;20978;-75
2022/02/07 08:45:32;;;;;;;37.20;17.80;;;;;;;3.38;66.84;96165.88;1694651;85;21427;-74
2022/02/07 08:47:59;;;;;;;42.67;15.55;;;;;;;3.34;66.71;96155.53;1698762;83;20977;-74
2022/02/07 08:50:28;;;;;;;27.42;16.02;;;;;;;3.36;67.03;96155.05;1699170;83;21449;-74
2022/02/07 08:52:57;;;;;;;29.90;16.60;;;;;;;3.38;67.15;96153.23;1711365;83;20984;-74
2022/02/07 08:55:50;;;;;;;29.63;14.60;;;;;;;3.38;67.01;96152.79;1719410;83;20957;-75
2022/02/07 08:58:04;;;;;;;37.50;16.20;;;;;;;3.35;67.24;96147.63;1696669;83;21500;-74
2022/02/07 09:00:55;;;;;;;29.42;15.88;;;;;;;3.34;67.20;96148.55;1708619;83;21096;-75
2022/02/07 09:03:28;;;;;;;34.75;16.32;;;;;;;3.30;67.37;96153.02;1717698;83;20992;-75
2022/02/07 09:10:47;;;;;;;31.50;16.15;;;;;;;3.32;67.50;96152.95;1713912;83;20980;-73
2022/02/07 09:13:16;;;;;;;27.13;15.63;;;;;;;3.32;67.60;96145.57;1712525;83;20992;-75
2022/02/07 09:15:55;;;;;;;27.50;15.32;;;;;;;3.33;67.57;96150.77;1710928;83;21035;-75
2022/02/07 09:18:12;;;;;;;26.75;13.65;;;;;;;3.31;67.64;96144.70;1706439;83;21023;-76
2022/02/07 09:20:45;;;;;;;27.60;13.80;;;;;;;3.30;67.70;96147.79;1710507;83;21032;-76
2022/02/07 09:23:12;;;;;;;22.70;12.63;;;;;;;3.30;67.74;96146.48;1721818;83;21023;-76
2022/02/07 09:25:39;;;;;;;26.57;13.28;;;;;;;3.25;67.93;96154.92;1707642;83;20981;-74
2022/02/07 09:28:06;;;;;;;23.65;12.90;;;;;;;3.24;67.90;96147.11;1704636;83;21398;-77
2022/02/07 09:30:32;;;;;;;23.75;13.00;;;;;;;3.24;67.97;96152.35;1710195;83;20954;-73
2022/02/07 09:32:59;;;;;;;29.15;13.15;;;;;;;3.22;68.15;96133.20;1700840;83;20970;-74
2022/02/07 09:35:26;;;;;;;23.35;13.20;;;;;;;3.21;68.61;96128.87;1720549;82;21091;-76
2022/02/07 09:37:55;;;;;;;27.15;14.23;;;;;;;3.19;68.33;96128.08;1725179;82;21026;-74
2022/02/07 09:40:22;;;;;;;24.87;13.32;;;;;;;3.21;68.27;96124.50;1725930;83;21036;-75
2022/02/07 09:42:56;;;;;;;26.37;13.65;;;;;;;3.20;68.46;96122.77;1725059;83;20996;-75
2022/02/07 09:45:30;;;;;;;23.83;13.65;;;;;;;3.18;68.68;96123.27;1724041;83;21043;-74
2022/02/07 09:47:49;;;;;;;22.13;13.13;;;;;;;3.16;68.68;96120.70;1722958;83;20971;-75
2022/02/07 09:50:15;;;;;;;24.37;14.35;;;;;;;3.15;68.80;96114.20;1724585;83;20979;-74
2022/02/07 09:52:42;;;;;;;24.43;13.13;;;;;;;3.19;68.67;96109.28;1725269;83;21008;-71
2022/02/07 09:55:09;;;;;;;27.67;13.85;;;;;;;3.19;68.90;96104.04;1725152;83;21068;-71
2022/02/07 09:57:35;;;;;;;28.98;14.85;;;;;;;3.21;68.88;96109.23;1723688;83;21020;-75
2022/02/07 10:00:08;;;;;;;22.20;13.38;;;;;;;3.23;68.70;96095.20;1718675;83;21028;-74
2022/02/07 10:02:47;;;;;;;27.98;13.58;;;;;;;3.23;69.10;96100.43;1716137;83;20997;-73
2022/02/07 10:05:12;;;;;;;29.27;13.72;;;;;;;3.23;69.19;96103.05;1711154;83;21032;-73
2022/02/07 10:07:59;;;;;;;27.42;14.58;;;;;;;3.27;69.15;96097.26;1718585;83;21036;-73
2022/02/07 10:10:27;;;;;;;27.77;14.07;;;;;;;3.29;69.39;96084.52;1724931;83;21012;-74
2022/02/07 10:13:06;;;;;;;26.95;15.45;;;;;;;3.34;69.49;96086.14;1725075;83;21051;-74
2022/02/07 10:15:27;;;;;;;27.77;15.03;;;;;;;3.39;69.40;96075.94;1710057;83;21087;-73
2022/02/07 10:17:58;;;;;;;28.50;14.43;;;;;;;3.45;69.49;96073.59;1695432;84;21511;-73
2022/02/07 10:20:54;;;;;;;30.62;15.48;;;;;;;3.53;69.42;96074.17;1695728;84;21460;-73
2022/02/07 10:34:39;;;;;;;24.75;13.80;;;;;;;3.86;69.32;96063.92;1681960;84;21564;-71
2022/02/07 10:40:27;;;;;;;23.22;13.98;;;;;;;3.91;69.47;96063.31;1692802;84;21354;-71
2022/02/07 10:45:34;;;;;;;21.23;12.85;;;;;;;3.94;69.75;96071.08;1689871;84;21005;-73
2022/02/07 10:48:07;;;;;;;23.10;14.45;;;;;;;3.94;69.90;96067.15;1697134;84;20972;-74
2022/02/07 10:50:33;;;;;;;27.80;14.87;;;;;;;3.95;69.55;96062.30;1702567;84;20999;-72
2022/02/07 10:53:00;;;;;;;27.20;14.40;;;;;;;4.00;69.69;96059.55;1691348;83;20992;-71
2022/02/07 10:55:32;;;;;;;24.57;15.08;;;;;;;4.00;70.08;96067.41;1685507;85;21079;-70
2022/02/07 10:58:02;;;;;;;25.60;15.23;;;;;;;4.01;69.77;96057.76;1697263;84;21000;-70
2022/02/07 11:00:42;;;;;;;27.40;14.70;;;;;;;4.04;70.17;96062.91;1700562;84;21405;-70
2022/02/07 11:03:21;;;;;;;25.62;14.53;;;;;;;4.06;70.04;96054.08;1703920;82;21014;-70
2022/02/07 11:05:57;;;;;;;24.98;15.05;;;;;;;4.09;70.07;96069.71;1703550;83;21076;-71
2022/02/07 11:11:18;;;;;;;28.23;14.60;;;;;;;4.13;70.12;96061.72;1701646;83;21434;-71
2022/02/07 11:16:20;;;;;;;23.75;14.50;;;;;;;4.14;70.28;96059.49;1690331;84;21489;-71
2022/02/07 11:19:07;;;;;;;22.75;14.43;;;;;;;4.11;70.68;96060.45;1703279;84;21032;-70
2022/02/07 11:27:35;;;;;;;24.98;14.03;;;;;;;4.14;70.10;96073.47;1658444;86;21088;-69
2022/02/07 11:30:07;;;;;;;26.80;15.55;;;;;;;4.12;70.44;96078.37;1690252;84;21095;-70
2022/02/07 11:32:51;;;;;;;25.92;14.80;;;;;;;4.14;70.55;96084.40;1696187;84;21048;-71
2022/02/07 11:35:27;;;;;;;26.93;14.98;;;;;;;4.16;70.89;96079.50;1713434;84;21068;-71
2022/02/07 11:38:08;;;;;;;24.37;15.05;;;;;;;4.21;70.71;96079.36;1690161;84;21062;-71
2022/02/07 11:41:05;;;;;;;34.40;16.60;;;;;;;4.21;70.73;96072.36;1723309;83;21115;-70
2022/02/07 11:43:37;;;;;;;26.77;16.00;;;;;;;4.26;70.56;96079.18;1722902;83;21021;-70
2022/02/07 11:46:11;;;;;;;28.83;17.05;;;;;;;4.27;70.74;96080.45;1749910;82;21015;-71
2022/02/07 11:48:52;;;;;;;31.45;18.25;;;;;;;4.31;71.15;96086.43;1697940;82;20973;-71
2022/02/07 11:51:33;;;;;;;27.62;17.25;;;;;;;4.33;70.73;96093.33;1723052;83;21052;-71
2022/02/07 11:54:06;;;;;;;32.45;18.60;;;;;;;4.35;71.00;96109.89;1699859;83;21390;-70
2022/02/07 11:56:47;;;;;;;31.10;19.02;;;;;;;4.39;71.65;96114.56;1705222;83;21004;-71
2022/02/07 11:59:24;;;;;;;33.92;19.52;;;;;;;4.38;73.20;96109.37;1708160;83;21078;-71
2022/02/07 12:02:18;;;;;;;35.88;20.57;;;;;;;4.36;73.50;96117.28;1704080;83;21474;-71
2022/02/07 12:04:49;;;;;;;36.70;21.02;;;;;;;4.32;73.70;96112.61;1714157;83;21427;-70
2022/02/07 12:07:27;;;;;;;39.67;21.17;;;;;;;4.37;73.48;96111.16;1701283;82;20986;-70
2022/02/07 12:10:24;;;;;;;37.23;21.95;;;;;;;4.43;73.09;96110.05;1708207;83;20993;-70
2022/02/07 12:12:48;;;;;;;34.00;19.67;;;;;;;4.55;73.87;96105.70;1653895;85;21069;-71
2022/02/07 12:15:40;;;;;;;26.93;16.20;;;;;;;4.68;73.50;96113.11;1705150;83;21429;-70
2022/02/07 12:18:20;;;;;;;23.02;12.25;;;;;;;4.78;73.75;96101.84;1724623;83;20993;-70
2022/02/07 12:20:52;;;;;;;10.63;6.75;;;;;;;4.92;73.63;96115.74;1708674;83;21027;-70
2022/02/07 12:23:31;;;;;;;7.72;4.17;;;;;;;5.06;73.27;96111.31;1724727;83;21502;-71
2022/02/07 12:26:10;;;;;;;5.25;3.22;;;;;;;5.19;73.66;96107.27;1724169;82;21019;-69
2022/02/07 12:28:43;;;;;;;4.05;2.77;;;;;;;5.31;74.11;96105.95;1722846;83;21011;-71
2022/02/07 12:31:20;;;;;;;9.13;4.33;;;;;;;5.44;73.44;96098.91;1724517;83;21012;-70
2022/02/07 12:34:01;;;;;;;3.25;1.80;;;;;;;5.58;73.30;96095.27;1697943;83;21021;-71
2022/02/07 12:36:32;;;;;;;2.00;1.30;;;;;;;5.70;74.33;96091.74;1712229;83;21035;-70
2022/02/07 12:39:03;;;;;;;1.98;0.98;;;;;;;5.82;73.45;96091.25;1708402;83;21028;-70
2022/02/07 12:41:33;;;;;;;2.15;1.07;;;;;;;5.92;73.08;96100.47;1712645;83;21011;-70
2022/02/07 12:44:02;;;;;;;1.42;0.70;;;;;;;6.00;72.98;96108.48;1658676;86;21004;-70
2022/02/07 12:46:31;;;;;;;1.60;0.70;;;;;;;6.07;72.70;96100.30;1638567;87;21020;-71
2022/02/07 12:49:00;;;;;;;2.15;0.65;;;;;;;6.16;72.59;96108.28;1693545;84;21044;-71
2022/02/07 12:51:32;;;;;;;1.00;0.57;;;;;;;6.24;72.22;96118.92;1693839;84;21084;-71
2022/02/07 12:54:00;;;;;;;4.20;1.10;;;;;;;6.29;71.58;96121.77;1694159;84;21005;-70
2022/02/07 12:56:29;;;;;;;1.60;0.80;;;;;;;6.25;70.97;96128.07;1657944;86;21025;-70
2022/02/07 12:58:56;;;;;;;1.10;0.60;;;;;;;6.25;71.43;96126.75;1663542;85;21119;-70
2022/02/07 13:01:27;;;;;;;1.67;0.90;;;;;;;6.28;71.32;96138.47;1643588;86;21391;-71
2022/02/07 13:04:08;;;;;;;4.75;3.22;;;;;;;6.22;70.71;96134.77;1695976;84;20970;-70
2022/02/07 13:06:43;;;;;;;2.52;1.52;;;;;;;6.19;71.00;96130.48;1692968;84;21061;-70
2022/02/07 13:09:28;;;;;;;2.35;1.32;;;;;;;6.24;71.03;96131.63;1692806;84;20963;-70
2022/02/07 13:12:12;;;;;;;;;;;;;;;6.26;70.87;96135.03;1693959;84;21013;-70
2022/02/07 13:14:36;;;;;;;2.98;2.00;;;;;;;6.27;70.52;96133.27;1693220;84;20135;-69
2022/02/07 13:17:06;;;;;;;1.85;1.10;;;;;;;6.28;70.57;96135.84;1708543;83;20991;-70
2022/02/07 13:19:42;;;;;;;2.30;1.00;;;;;;;6.20;69.78;96141.40;1700339;83;21074;-70
2022/02/07 13:22:15;;;;;;;2.70;1.40;;;;;;;6.17;70.34;96138.92;1636550;86;21050;-70
2022/02/07 13:24:40;;;;;;;2.10;1.20;;;;;;;6.10;70.07;96145.34;1689360;84;21433;-70
2022/02/07 13:27:14;;;;;;;1.72;0.98;;;;;;;6.10;70.30;96147.13;1688525;83;21025;-70
2022/02/07 13:29:47;;;;;;;1.70;1.10;;;;;;;6.03;70.15;96146.53;1710679;83;21076;-70
2022/02/07 13:32:21;;;;;;;2.42;1.30;;;;;;;5.89;70.45;96154.92;1695302;83;21372;-70
2022/02/07 13:34:49;;;;;;;2.72;1.35;;;;;;;5.77;70.52;96141.37;1696536;83;21096;-70
2022/02/07 13:37:26;;;;;;;1.12;1.00;;;;;;;5.72;70.63;96155.63;1697533;83;21513;-70
2022/02/07 13:39:59;;;;;;;;;;;;;;;5.66;70.79;96162.81;1698732;83;21062;-70
2022/02/07 13:42:33;;;;;;;2.47;1.35;;;;;;;5.53;71.22;96159.81;1706797;84;20468;-70
2022/02/07 13:45:18;;;;;;;1.57;1.20;;;;;;;5.49;71.53;96167.89;1696720;84;20993;-70
2022/02/07 13:47:49;;;;;;;2.83;1.40;;;;;;;5.49;71.41;96177.93;1687729;84;21040;-70
2022/02/07 13:50:20;;;;;;;2.30;1.40;;;;;;;5.40;72.00;96171.74;1689829;84;21024;-71
2022/02/07 13:52:51;;;;;;;1.90;1.22;;;;;;;5.45;72.29;96163.23;1692626;84;21428;-71